Cruger, Mississippi
Current Conditions -  °F | °C
As of 12:53 PM on Thursday 30 Oct 2014 (Local Time) from KGWO Reporting Station
Clear Clear  
Wind Chill: 70°   Ceiling: Unl
Heat Index: 70°   Visibility: 10mi
Dew Point: 43°   Wind: 6mph
Humidity: 38%   Direction: NA
Pressure: 30.13"   Gusts: NA
Location:  33.32°N, 90.23°W
Report Text: KGWO 301753Z AUTO VRB05KT 10SM CLR 21/06 A3013 RMK AO2 SLP201 T02110061 10211 20050 58016 TSNO
Loading
Personal Weather Stations






























Interactive Weather Map
Tropical Storm Tracking
New forecast layout! Learn more

10-Day Weather Forecast

Advertisements
Track Severe Weather on mobile